Time;durP1;ratioP1;P1;durP2;ratioP2;P2;SDS_P1;SDS_P2;PMS_P1;PMS_P2;Temp;Humidity;BMP_temperature;BMP_pressure;BME280_temperature;BME280_humidity;BME280_pressure;Samples;Min_cycle;Max_cycle;Signal;HPM_P1;HPM_P2
2022/07/28 00:00:57;;;;;;;3.20;1.40;;;;;;;17.94;54.14;98559.00;4998611;28;20227;-61
2022/07/28 00:03:24;;;;;;;2.37;1.43;;;;;;;17.97;53.99;98551.47;5015230;28;20735;-59
2022/07/28 00:05:51;;;;;;;5.53;1.50;;;;;;;18.02;54.04;98547.44;5013223;28;20233;-60
2022/07/28 00:08:17;;;;;;;5.00;1.47;;;;;;;18.06;54.26;98548.66;5016844;28;20218;-60
2022/07/28 00:10:44;;;;;;;2.53;1.43;;;;;;;17.99;54.26;98538.06;5011322;28;20220;-60
2022/07/28 00:13:11;;;;;;;6.10;1.50;;;;;;;17.95;54.59;98542.13;5014526;28;20228;-61
2022/07/28 00:15:37;;;;;;;2.73;1.73;;;;;;;17.90;54.14;98531.34;5012784;28;20252;-61
2022/07/28 00:18:05;;;;;;;4.50;1.70;;;;;;;17.88;54.55;98536.03;5013052;28;20323;-61
2022/07/28 00:20:32;;;;;;;3.93;1.67;;;;;;;17.84;54.87;98536.44;5018807;28;20259;-60
2022/07/28 00:22:59;;;;;;;2.63;1.40;;;;;;;17.76;54.59;98533.13;5011708;28;20704;-60
2022/07/28 00:25:26;;;;;;;3.87;1.40;;;;;;;17.78;55.00;98537.22;5011357;28;20243;-60
2022/07/28 00:27:53;;;;;;;3.77;1.60;;;;;;;17.75;54.88;98534.97;5011381;28;20221;-60
2022/07/28 00:30:19;;;;;;;2.80;1.47;;;;;;;17.72;54.58;98538.03;5012905;28;20732;-60
2022/07/28 00:32:46;;;;;;;3.97;1.70;;;;;;;17.72;55.34;98538.03;5017616;28;20228;-60
2022/07/28 00:35:14;;;;;;;3.83;1.60;;;;;;;17.66;55.03;98531.69;5011328;28;20321;-60
2022/07/28 00:37:41;;;;;;;5.10;1.80;;;;;;;17.67;54.91;98529.88;5013314;28;20212;-61
2022/07/28 00:40:08;;;;;;;3.47;1.57;;;;;;;17.76;53.68;98530.50;4999219;28;20246;-60
2022/07/28 00:42:35;;;;;;;5.20;1.30;;;;;;;17.79;53.93;98530.09;5014530;28;20236;-60
2022/07/28 00:45:02;;;;;;;2.67;1.40;;;;;;;17.78;53.89;98521.38;5011900;28;20244;-60
2022/07/28 00:47:28;;;;;;;4.93;2.00;;;;;;;17.79;54.79;98525.66;5009259;28;20257;-60
2022/07/28 00:49:55;;;;;;;4.30;1.30;;;;;;;17.87;54.56;98524.63;5008766;28;20217;-60
2022/07/28 00:52:24;;;;;;;5.50;1.60;;;;;;;17.97;52.67;98524.25;5010698;28;20251;-60
2022/07/28 00:54:51;;;;;;;3.53;1.60;;;;;;;17.95;52.80;98515.72;5009734;28;20697;-60
2022/07/28 00:57:19;;;;;;;7.60;1.40;;;;;;;17.94;51.94;98509.63;5015845;28;20244;-60
2022/07/28 00:59:46;;;;;;;6.27;1.70;;;;;;;18.21;50.51;98508.84;5017235;28;20287;-59
2022/07/28 01:02:13;;;;;;;3.73;1.40;;;;;;;18.15;50.42;98511.28;5012925;28;20223;-59
2022/07/28 01:04:40;;;;;;;5.00;1.77;;;;;;;18.23;50.19;98507.63;5016307;28;20696;-60
2022/07/28 01:07:20;;;;;;;4.70;1.60;;;;;;;18.22;50.48;98500.72;5008297;28;20264;-60
2022/07/28 01:10:03;;;;;;;4.03;1.40;;;;;;;18.27;49.88;98497.47;5014519;28;20322;-59
2022/07/28 01:12:37;;;;;;;3.80;1.50;;;;;;;18.22;51.22;98503.38;5013587;28;20241;-60
2022/07/28 01:15:18;;;;;;;8.00;1.60;;;;;;;18.20;50.15;98492.19;5012627;28;20247;-60
2022/07/28 01:17:53;;;;;;;3.50;1.60;;;;;;;18.18;51.57;98491.59;5017417;28;20329;-60
2022/07/28 01:20:25;;;;;;;3.57;1.63;;;;;;;18.21;51.41;98485.88;5010945;28;20217;-60
2022/07/28 01:23:05;;;;;;;2.63;1.30;;;;;;;18.02;52.59;98490.13;5010849;28;20263;-60
2022/07/28 01:25:44;;;;;;;4.23;1.37;;;;;;;17.89;52.69;98482.19;5012131;28;20226;-60
2022/07/28 01:28:24;;;;;;;4.57;1.57;;;;;;;17.76;53.48;98480.34;5011790;28;20220;-61
2022/07/28 01:30:56;;;;;;;3.73;1.40;;;;;;;17.62;54.02;98472.41;5013230;28;20234;-61
2022/07/28 01:33:31;;;;;;;4.07;1.60;;;;;;;17.88;51.51;98472.66;5015445;28;20220;-61
2022/07/28 01:36:02;;;;;;;4.80;1.53;;;;;;;17.84;52.20;98470.41;5017241;28;20250;-61
2022/07/28 01:38:32;;;;;;;2.40;1.50;;;;;;;17.80;52.64;98474.47;5018450;28;20228;-60
2022/07/28 01:41:01;;;;;;;4.50;1.53;;;;;;;17.78;53.30;98465.94;5017069;28;20263;-60
2022/07/28 01:43:31;;;;;;;5.53;1.50;;;;;;;17.81;53.14;98459.44;5015070;28;21086;-60
2022/07/28 01:46:01;;;;;;;6.50;1.73;;;;;;;17.73;53.51;98454.34;5013822;28;20239;-60
2022/07/28 01:48:29;;;;;;;2.43;1.53;;;;;;;17.70;52.91;98456.38;5013410;28;20219;-60
2022/07/28 01:50:57;;;;;;;2.57;1.63;;;;;;;17.71;53.97;98450.06;5014540;28;20995;-60
2022/07/28 01:53:26;;;;;;;2.40;1.73;;;;;;;17.62;53.99;98453.13;5015989;28;20224;-59
2022/07/28 01:55:54;;;;;;;7.47;1.80;;;;;;;17.61;54.78;98452.28;5013763;28;20215;-59
2022/07/28 01:58:25;;;;;;;4.90;1.57;;;;;;;17.59;54.46;98446.41;5015950;28;20244;-60
2022/07/28 02:00:53;;;;;;;2.30;1.70;;;;;;;17.45;54.68;98447.41;5014092;28;20299;-60
2022/07/28 02:03:24;;;;;;;2.90;1.57;;;;;;;17.37;55.60;98443.13;5016049;28;20256;-60
2022/07/28 02:05:53;;;;;;;3.50;1.50;;;;;;;17.22;55.79;98441.47;5012870;28;20241;-60
2022/07/28 02:08:22;;;;;;;3.17;1.60;;;;;;;17.14;55.68;98440.84;5015308;28;20227;-60
2022/07/28 02:13:33;;;;;;;3.67;1.70;;;;;;;17.00;56.29;98445.22;5012729;28;20223;-60
2022/07/28 02:16:02;;;;;;;2.63;1.57;;;;;;;16.94;56.79;98441.53;5014756;28;20622;-60
2022/07/28 02:18:32;;;;;;;2.80;1.90;;;;;;;16.88;57.61;98443.16;5020610;28;20226;-60
2022/07/28 02:21:00;;;;;;;3.23;1.90;;;;;;;16.79;58.00;98439.06;5020977;28;20718;-60
2022/07/28 02:23:27;;;;;;;1.70;1.60;;;;;;;16.75;57.54;98432.56;5022430;28;20201;-60
2022/07/28 02:25:55;;;;;;;3.37;1.60;;;;;;;16.67;57.63;98431.69;5020539;28;20198;-60
2022/07/28 02:28:27;;;;;;;3.27;1.70;;;;;;;16.67;58.33;98417.69;5023851;28;20225;-60
2022/07/28 02:30:58;;;;;;;2.90;1.80;;;;;;;16.62;58.65;98420.94;5020320;28;20194;-60
2022/07/28 02:33:27;;;;;;;3.73;1.70;;;;;;;16.64;57.80;98416.28;5017824;28;20221;-60
2022/07/28 02:35:59;;;;;;;4.33;1.90;;;;;;;16.58;57.74;98417.06;5021674;28;20196;-60
2022/07/28 02:38:29;;;;;;;2.87;1.90;;;;;;;16.50;57.70;98411.94;5017403;28;20864;-60
2022/07/28 02:41:10;;;;;;;2.83;2.03;;;;;;;16.47;58.38;98420.25;5018628;28;20254;-60
2022/07/28 02:43:39;;;;;;;3.70;1.90;;;;;;;16.50;59.00;98415.38;5020150;28;20198;-61
2022/07/28 02:46:10;;;;;;;4.93;1.73;;;;;;;16.42;58.57;98414.72;5019220;28;20265;-61
2022/07/28 02:48:39;;;;;;;6.37;1.83;;;;;;;16.38;58.82;98407.22;5018726;28;20231;-61
2022/07/28 02:51:09;;;;;;;3.80;2.20;;;;;;;16.35;59.01;98404.97;5020264;28;20593;-59
2022/07/28 02:53:38;;;;;;;2.30;1.70;;;;;;;16.25;59.69;98399.22;5021329;28;20209;-60
2022/07/28 02:56:05;;;;;;;4.77;2.00;;;;;;;16.18;59.52;98411.53;5020061;28;20199;-60
2022/07/28 02:58:33;;;;;;;3.10;1.70;;;;;;;16.12;59.89;98409.69;5023461;28;20246;-60
2022/07/28 03:01:01;;;;;;;3.00;1.80;;;;;;;16.18;60.78;98419.44;5020966;28;20232;-60
2022/07/28 03:03:28;;;;;;;3.43;1.83;;;;;;;16.07;60.43;98418.97;5020820;28;20545;-60
2022/07/28 03:05:55;;;;;;;3.07;2.00;;;;;;;16.10;60.34;98425.69;5018547;28;20195;-60
2022/07/28 03:08:24;;;;;;;2.33;1.70;;;;;;;16.07;60.54;98426.88;5024063;28;20280;-60
2022/07/28 03:11:06;;;;;;;4.83;2.10;;;;;;;16.00;60.75;98428.63;5018964;28;20286;-60
2022/07/28 03:13:33;;;;;;;3.03;1.77;;;;;;;16.11;60.19;98427.31;5009847;28;20214;-60
2022/07/28 03:16:00;;;;;;;3.20;1.83;;;;;;;16.09;60.03;98432.75;5023778;28;20754;-60
2022/07/28 03:18:27;;;;;;;2.57;1.43;;;;;;;16.08;60.14;98432.97;5018106;28;20218;-60
2022/07/28 03:20:54;;;;;;;3.63;2.10;;;;;;;15.96;60.72;98443.19;5014896;28;20577;-60
2022/07/28 03:23:28;;;;;;;5.13;1.63;;;;;;;15.87;60.73;98441.72;5023442;28;20205;-60
2022/07/28 03:26:00;;;;;;;6.97;1.77;;;;;;;15.97;58.84;98450.06;5020807;28;20205;-60
2022/07/28 03:28:28;;;;;;;4.30;1.50;;;;;;;15.92;58.66;98448.03;5015667;28;20217;-60
2022/07/28 03:30:58;;;;;;;4.80;1.60;;;;;;;15.90;58.63;98444.75;5024228;28;20188;-60
2022/07/28 03:33:24;;;;;;;3.67;1.80;;;;;;;15.79;59.88;98446.06;5018221;28;20207;-60
2022/07/28 03:35:55;;;;;;;5.87;1.93;;;;;;;15.71;60.41;98440.94;5020863;28;20577;-60
2022/07/28 03:38:26;;;;;;;4.10;1.47;;;;;;;15.57;61.46;98447.88;5013348;28;20217;-59
2022/07/28 03:40:55;;;;;;;2.57;1.60;;;;;;;15.45;62.19;98434.41;5013239;28;20609;-60
2022/07/28 03:43:25;;;;;;;6.07;1.60;;;;;;;15.40;62.28;98434.16;5021075;28;20189;-60
2022/07/28 03:45:52;;;;;;;3.90;1.77;;;;;;;15.40;62.76;98430.69;5017243;28;20197;-60
2022/07/28 03:48:22;;;;;;;3.10;1.80;;;;;;;15.35;63.32;98436.53;5012612;28;20208;-60
2022/07/28 03:50:48;;;;;;;5.53;1.67;;;;;;;15.34;63.34;98441.00;5013147;28;20205;-60
2022/07/28 03:53:20;;;;;;;3.90;1.70;;;;;;;15.31;62.89;98444.00;5018822;28;20196;-60
2022/07/28 03:55:50;;;;;;;3.53;1.77;;;;;;;15.31;62.59;98433.47;5016198;28;20685;-61
2022/07/28 03:58:17;;;;;;;3.23;1.50;;;;;;;15.32;63.06;98436.91;5020393;28;20241;-60
2022/07/28 04:00:44;;;;;;;2.17;1.40;;;;;;;15.29;63.15;98435.47;5022507;28;20541;-60
2022/07/28 04:03:10;;;;;;;7.50;1.90;;;;;;;15.29;63.38;98434.63;5020513;28;20205;-60
2022/07/28 04:05:37;;;;;;;5.20;1.60;;;;;;;15.27;63.52;98436.63;5016712;28;20256;-61
2022/07/28 04:08:05;;;;;;;3.53;1.87;;;;;;;15.25;63.90;98441.28;5019768;28;20220;-60
2022/07/28 04:10:31;;;;;;;2.63;1.70;;;;;;;15.24;63.88;98431.75;5004993;28;20673;-60
2022/07/28 04:13:00;;;;;;;5.27;1.60;;;;;;;15.25;64.92;98428.94;5020863;28;20211;-61
2022/07/28 04:15:29;;;;;;;3.30;2.00;;;;;;;15.25;64.65;98430.75;5016699;28;20271;-61
2022/07/28 04:17:57;;;;;;;4.07;1.80;;;;;;;15.31;64.65;98424.75;5022249;28;20206;-61
2022/07/28 04:20:25;;;;;;;3.13;1.90;;;;;;;15.28;64.69;98433.00;5012585;28;20192;-60
2022/07/28 04:22:53;;;;;;;3.63;1.63;;;;;;;15.28;65.03;98425.94;5021354;28;20802;-60
2022/07/28 04:25:23;;;;;;;3.97;1.87;;;;;;;15.32;64.90;98429.84;5003563;28;20203;-60
2022/07/28 04:27:50;;;;;;;2.70;1.87;;;;;;;15.33;65.47;98428.84;5014973;28;20241;-60
2022/07/28 04:30:23;;;;;;;4.17;1.80;;;;;;;15.34;65.65;98433.09;5020456;28;20197;-60
2022/07/28 04:32:52;;;;;;;5.13;1.80;;;;;;;15.37;65.46;98434.53;5004879;28;20253;-61
2022/07/28 04:35:21;;;;;;;4.10;1.80;;;;;;;15.45;65.83;98429.16;5020600;28;20213;-60
2022/07/28 04:37:48;;;;;;;4.30;1.90;;;;;;;15.50;64.65;98428.56;5017454;28;20199;-60
2022/07/28 04:40:15;;;;;;;2.53;1.87;;;;;;;15.54;64.56;98432.47;5017900;28;20205;-60
2022/07/28 04:42:42;;;;;;;2.40;1.60;;;;;;;15.60;65.02;98436.16;5014346;28;20649;-60
2022/07/28 04:45:11;;;;;;;5.97;2.33;;;;;;;15.65;65.20;98434.59;5020150;28;20733;-60
2022/07/28 04:47:39;;;;;;;4.60;2.13;;;;;;;15.68;64.38;98437.84;5010125;28;20258;-60
2022/07/28 04:50:08;;;;;;;4.93;2.50;;;;;;;15.75;64.66;98438.72;5019560;28;20217;-60
2022/07/28 04:52:35;;;;;;;3.87;2.00;;;;;;;15.87;64.09;98436.44;5019348;28;20598;-60
2022/07/28 04:55:03;;;;;;;2.50;1.50;;;;;;;15.87;63.05;98441.72;5021595;28;20795;-61
2022/07/28 04:57:29;;;;;;;4.40;1.70;;;;;;;15.98;63.15;98438.53;5020383;28;20190;-61
2022/07/28 04:59:56;;;;;;;2.53;1.70;;;;;;;16.08;63.30;98440.84;5020113;28;20277;-61
2022/07/28 05:02:23;;;;;;;4.57;2.00;;;;;;;16.23;62.92;98443.38;5005223;28;20210;-61
2022/07/28 05:04:51;;;;;;;5.27;1.90;;;;;;;16.34;62.41;98449.97;5016093;28;20202;-60
2022/07/28 05:07:19;;;;;;;6.30;1.90;;;;;;;16.44;61.48;98442.50;5011696;28;20194;-60
2022/07/28 05:09:46;;;;;;;5.97;1.70;;;;;;;16.55;61.85;98448.22;5016261;28;20641;-60
2022/07/28 05:12:12;;;;;;;2.70;1.93;;;;;;;16.61;62.26;98443.03;5018619;28;20205;-60
2022/07/28 05:14:39;;;;;;;5.23;2.10;;;;;;;16.66;62.04;98450.31;5019768;28;20221;-60
2022/07/28 05:17:06;;;;;;;3.17;1.30;;;;;;;16.71;59.73;98449.75;5022269;28;20202;-60
2022/07/28 05:19:32;;;;;;;4.03;1.80;;;;;;;16.66;62.20;98453.78;5014757;28;20544;-60
2022/07/28 05:22:01;;;;;;;6.03;1.80;;;;;;;16.67;60.78;98450.16;5018041;28;20282;-60
2022/07/28 05:24:27;;;;;;;3.37;1.50;;;;;;;16.65;60.97;98436.34;5015053;28;20194;-61
2022/07/28 05:26:54;;;;;;;2.30;1.40;;;;;;;16.61;61.54;98436.91;5019062;28;20206;-62
2022/07/28 05:29:21;;;;;;;3.03;1.70;;;;;;;16.61;60.48;98439.56;5016451;28;20560;-60
2022/07/28 05:31:48;;;;;;;4.90;1.80;;;;;;;16.64;61.52;98439.16;5019132;28;20190;-61
2022/07/28 05:34:15;;;;;;;4.90;1.63;;;;;;;16.61;61.58;98437.75;5018877;28;20203;-61
2022/07/28 05:36:41;;;;;;;2.67;1.60;;;;;;;16.61;61.77;98436.91;5018042;28;20229;-61
2022/07/28 05:39:09;;;;;;;4.40;1.80;;;;;;;16.59;62.04;98439.75;5004112;28;20703;-61
2022/07/28 05:41:36;;;;;;;3.53;1.90;;;;;;;16.57;62.45;98436.50;5017661;28;20194;-61
2022/07/28 05:44:03;;;;;;;2.73;1.67;;;;;;;16.63;62.42;98441.00;5003560;28;20209;-61
2022/07/28 05:46:30;;;;;;;2.80;1.57;;;;;;;16.66;62.50;98445.06;5011402;28;20678;-61
2022/07/28 05:48:57;;;;;;;2.80;1.80;;;;;;;16.65;62.36;98446.06;5011247;28;20222;-61
2022/07/28 05:51:23;;;;;;;3.03;1.83;;;;;;;16.61;60.14;98456.19;5017135;28;20258;-60
2022/07/28 05:53:50;;;;;;;4.73;1.80;;;;;;;16.66;59.86;98455.59;5009660;28;20566;-61
2022/07/28 05:56:20;;;;;;;3.60;1.87;;;;;;;16.70;59.74;98458.69;5009769;28;20222;-60
2022/07/28 05:58:47;;;;;;;5.07;1.60;;;;;;;16.73;59.91;98455.66;5017978;28;20209;-60
2022/07/28 06:01:14;;;;;;;4.87;1.83;;;;;;;16.73;59.89;98455.66;5014449;28;20207;-60
2022/07/28 06:03:41;;;;;;;5.90;1.90;;;;;;;16.78;60.93;98447.97;5019198;28;20669;-60
2022/07/28 06:06:07;;;;;;;2.80;1.50;;;;;;;16.89;61.56;98450.06;5021885;28;20201;-60
2022/07/28 06:08:35;;;;;;;4.93;1.90;;;;;;;16.99;61.30;98452.34;5018720;28;20213;-59
2022/07/28 06:11:08;;;;;;;5.70;1.70;;;;;;;17.23;59.72;98452.84;5018762;28;20199;-60
2022/07/28 06:13:36;;;;;;;4.17;1.80;;;;;;;17.36;59.11;98457.31;5019860;28;20222;-60
2022/07/28 06:16:04;;;;;;;3.37;1.60;;;;;;;17.44;60.44;98451.88;5025050;28;20207;-60
2022/07/28 06:18:31;;;;;;;2.77;1.70;;;;;;;17.52;59.64;98456.97;5021102;28;20733;-61
2022/07/28 06:20:57;;;;;;;3.20;1.60;;;;;;;17.70;58.46;98451.09;5022927;28;20194;-61
2022/07/28 06:23:24;;;;;;;3.27;1.90;;;;;;;17.85;58.12;98453.56;5020738;28;20204;-61
2022/07/28 06:25:52;;;;;;;5.10;1.50;;;;;;;17.92;57.08;98450.13;5020787;28;20206;-61
2022/07/28 06:28:19;;;;;;;3.97;1.80;;;;;;;18.02;55.96;98455.81;5014741;28;20228;-61
2022/07/28 06:30:48;;;;;;;4.77;1.77;;;;;;;18.17;54.93;98455.63;5026591;28;20212;-59
2022/07/28 06:33:15;;;;;;;5.20;1.73;;;;;;;18.31;54.95;98455.59;5014525;28;20210;-60
2022/07/28 06:35:43;;;;;;;2.93;1.60;;;;;;;18.39;55.81;98472.03;5014674;28;20216;-60
2022/07/28 06:38:10;;;;;;;2.63;1.70;;;;;;;18.54;54.32;98465.72;5021576;28;20339;-60
2022/07/28 06:40:36;;;;;;;1.70;1.33;;;;;;;18.59;54.21;98466.72;5018055;28;20204;-60
2022/07/28 06:43:03;;;;;;;6.40;1.90;;;;;;;18.80;53.47;98464.03;5019971;28;20254;-60
2022/07/28 06:45:30;;;;;;;6.97;1.97;;;;;;;18.81;53.74;98466.47;5006207;28;20192;-60
2022/07/28 06:47:58;;;;;;;3.07;1.40;;;;;;;18.95;53.09;98461.13;5022860;28;20205;-60
2022/07/28 06:50:25;;;;;;;6.83;2.00;;;;;;;18.98;52.84;98477.44;5023231;28;20204;-60
2022/07/28 06:52:52;;;;;;;2.87;1.73;;;;;;;19.09;52.83;98470.66;5020686;28;20195;-60
2022/07/28 06:55:19;;;;;;;3.63;1.80;;;;;;;19.05;52.61;98469.47;5020795;28;20298;-60
2022/07/28 06:57:46;;;;;;;2.73;1.70;;;;;;;19.14;52.65;98470.03;5019503;28;20199;-60
2022/07/28 07:00:13;;;;;;;4.27;1.80;;;;;;;19.22;52.24;98472.44;5021826;28;20665;-60
2022/07/28 07:02:41;;;;;;;4.67;1.80;;;;;;;19.15;53.01;98469.00;5017983;28;20280;-61
2022/07/28 07:05:30;;;;;;;3.47;1.93;;;;;;;19.31;53.46;98471.16;5022055;28;20329;-61
2022/07/28 07:07:57;;;;;;;5.63;1.80;;;;;;;19.52;52.48;98479.00;5025954;28;20248;-61
2022/07/28 07:10:24;;;;;;;8.53;2.10;;;;;;;19.35;52.07;98476.88;5022036;28;20654;-61
2022/07/28 07:12:51;;;;;;;5.80;1.80;;;;;;;19.57;52.13;98479.97;5019177;28;20203;-61
2022/07/28 07:15:18;;;;;;;5.40;1.50;;;;;;;19.54;52.03;98480.41;5015692;28;20210;-61
2022/07/28 07:17:45;;;;;;;5.87;2.10;;;;;;;19.61;52.11;98481.19;5018141;28;20210;-61
2022/07/28 07:20:13;;;;;;;3.10;1.73;;;;;;;19.68;51.38;98477.69;5013344;28;20205;-61
2022/07/28 07:22:45;;;;;;;3.17;1.60;;;;;;;19.85;51.47;98475.31;5013216;28;20253;-61
2022/07/28 07:25:13;;;;;;;8.23;2.20;;;;;;;19.84;51.30;98482.47;5020530;28;20205;-61
2022/07/28 07:27:40;;;;;;;4.87;1.67;;;;;;;20.08;51.20;98480.06;5019038;28;20200;-61
2022/07/28 07:30:08;;;;;;;4.23;1.90;;;;;;;20.10;50.68;98478.03;5017800;28;20203;-61
2022/07/28 07:32:36;;;;;;;5.07;1.97;;;;;;;20.32;50.22;98475.78;5023227;28;20204;-61
2022/07/28 07:35:03;;;;;;;3.83;1.80;;;;;;;20.19;50.24;98474.03;5019481;28;20200;-61
2022/07/28 07:37:31;;;;;;;2.40;1.73;;;;;;;20.39;50.27;98475.72;5020216;28;20199;-61
2022/07/28 07:40:00;;;;;;;3.20;1.87;;;;;;;20.48;50.23;98470.94;5021095;28;20226;-61
2022/07/28 07:42:27;;;;;;;5.00;1.87;;;;;;;20.64;49.74;98474.84;5022844;28;20193;-61
2022/07/28 07:44:54;;;;;;;4.50;2.10;;;;;;;20.70;49.07;98468.69;5019538;28;20536;-62
2022/07/28 07:47:21;;;;;;;7.53;2.23;;;;;;;20.72;50.08;98471.09;5023211;28;20244;-62
2022/07/28 07:49:48;;;;;;;3.87;1.77;;;;;;;20.90;50.12;98463.16;5015096;28;20725;-60
2022/07/28 07:52:15;;;;;;;7.77;1.90;;;;;;;21.01;49.98;98472.25;5021161;28;20233;-61
2022/07/28 07:54:42;;;;;;;2.20;1.50;;;;;;;21.08;48.56;98465.00;5014765;28;20204;-61
2022/07/28 07:57:10;;;;;;;4.67;1.90;;;;;;;21.19;49.68;98462.63;5021173;28;20217;-60
2022/07/28 07:59:37;;;;;;;3.17;1.90;;;;;;;21.38;48.95;98466.84;5017007;28;20218;-60
2022/07/28 08:02:04;;;;;;;3.27;2.10;;;;;;;21.37;48.54;98465.22;5019358;28;20197;-59
2022/07/28 08:04:31;;;;;;;7.03;2.00;;;;;;;21.39;49.47;98462.34;5022138;28;20229;-60
2022/07/28 08:06:58;;;;;;;5.07;2.00;;;;;;;21.46;48.61;98460.41;5025604;28;20215;-60
2022/07/28 08:09:25;;;;;;;5.73;2.10;;;;;;;21.65;48.41;98460.38;5027935;28;20239;-60
2022/07/28 08:11:51;;;;;;;6.23;2.00;;;;;;;21.66;47.80;98457.50;5028876;28;20312;-61
2022/07/28 08:14:38;;;;;;;2.80;1.50;;;;;;;21.77;48.42;98455.09;5026856;28;20207;-61
2022/07/28 08:17:05;;;;;;;4.20;1.73;;;;;;;21.88;48.66;98462.28;5019107;28;20214;-61
2022/07/28 08:19:31;;;;;;;7.77;2.47;;;;;;;21.99;47.94;98465.19;5018456;28;20237;-61
2022/07/28 08:21:58;;;;;;;3.67;1.80;;;;;;;22.13;47.25;98463.94;5019050;28;20247;-61
2022/07/28 08:24:25;;;;;;;3.93;1.97;;;;;;;22.06;47.71;98469.34;5018819;28;20287;-61
2022/07/28 08:26:52;;;;;;;7.37;1.90;;;;;;;22.15;47.77;98461.03;5015170;28;20345;-61
2022/07/28 08:29:19;;;;;;;9.60;2.70;;;;;;;22.28;47.88;98455.47;5014039;28;20223;-61
2022/07/28 08:31:47;;;;;;;3.73;2.30;;;;;;;22.47;46.90;98458.84;5014373;28;20201;-61
2022/07/28 08:34:13;;;;;;;3.27;1.70;;;;;;;22.47;46.25;98453.53;5010355;28;20218;-61
2022/07/28 08:36:40;;;;;;;4.03;1.87;;;;;;;22.31;47.41;98452.38;5013958;28;20559;-61
2022/07/28 08:39:07;;;;;;;5.17;1.70;;;;;;;22.50;46.52;98460.25;5020221;28;20217;-61
2022/07/28 08:41:40;;;;;;;7.40;2.00;;;;;;;22.42;47.00;98446.22;4997505;28;20211;-61
2022/07/28 08:44:10;;;;;;;5.63;2.23;;;;;;;22.66;46.41;98459.53;5004903;28;20578;-61
2022/07/28 08:46:38;;;;;;;6.17;2.30;;;;;;;22.47;46.69;98453.53;4998070;28;20234;-61
2022/07/28 08:49:09;;;;;;;4.77;2.43;;;;;;;22.83;46.23;98448.97;5018877;28;20226;-61
2022/07/28 08:51:37;;;;;;;4.97;2.07;;;;;;;22.92;46.12;98453.91;5015287;28;20206;-61
2022/07/28 08:54:05;;;;;;;9.30;2.30;;;;;;;23.05;46.04;98448.31;5017989;28;20199;-61
2022/07/28 08:56:32;;;;;;;6.17;2.00;;;;;;;23.08;45.54;98449.69;5015307;28;20840;-61
2022/07/28 08:59:01;;;;;;;2.63;1.90;;;;;;;23.20;45.32;98452.31;5017316;28;20214;-61
2022/07/28 09:01:28;;;;;;;5.53;2.20;;;;;;;23.66;44.62;98444.38;5018721;28;20845;-62
2022/07/28 09:03:55;;;;;;;5.23;2.03;;;;;;;23.65;43.67;98448.06;5026041;28;20277;-62
2022/07/28 09:06:24;;;;;;;6.57;1.90;;;;;;;23.74;44.36;98450.09;5025604;28;20274;-62
2022/07/28 09:08:52;;;;;;;2.80;1.93;;;;;;;23.82;44.57;98451.56;5019998;28;20212;-62
2022/07/28 09:11:18;;;;;;;3.40;1.93;;;;;;;23.90;44.08;98450.34;5022233;28;20192;-62
2022/07/28 09:13:45;;;;;;;6.93;2.10;;;;;;;23.83;43.92;98441.69;5013872;28;20227;-62
2022/07/28 09:16:13;;;;;;;6.17;2.10;;;;;;;23.81;44.35;98452.63;5019959;28;20639;-62
2022/07/28 09:18:40;;;;;;;6.83;2.00;;;;;;;23.62;44.80;98449.34;5013524;28;20221;-62
2022/07/28 09:21:07;;;;;;;4.97;2.00;;;;;;;23.60;44.47;98446.13;5019678;28;20707;-62
2022/07/28 09:23:46;;;;;;;3.40;1.93;;;;;;;23.85;44.54;98458.25;5016235;28;20205;-62
2022/07/28 09:26:14;;;;;;;4.27;2.00;;;;;;;23.77;44.56;98443.47;5018869;28;20188;-62
2022/07/28 09:28:49;;;;;;;6.33;2.20;;;;;;;24.23;43.66;98459.41;5016260;28;20214;-62
2022/07/28 09:31:17;;;;;;;4.83;2.17;;;;;;;24.09;43.50;98439.47;5017856;28;20198;-62
2022/07/28 09:33:53;;;;;;;6.17;2.60;;;;;;;24.41;42.93;98436.97;5001595;28;20205;-62
2022/07/28 09:36:20;;;;;;;7.93;2.60;;;;;;;24.55;42.76;98433.94;5018350;28;20211;-62
2022/07/28 09:38:49;;;;;;;6.37;2.93;;;;;;;24.72;42.60;98426.72;5015972;28;20215;-62
2022/07/28 09:41:20;;;;;;;5.27;2.33;;;;;;;24.97;41.88;98430.72;5016479;28;20194;-62
2022/07/28 09:43:49;;;;;;;7.47;2.90;;;;;;;25.06;41.83;98423.88;5015770;28;20250;-62
2022/07/28 09:46:18;;;;;;;5.53;2.60;;;;;;;25.10;41.69;98426.88;5003220;28;20668;-62
2022/07/28 09:48:56;;;;;;;5.70;2.50;;;;;;;25.04;41.78;98422.53;5017377;28;20224;-62
2022/07/28 09:51:25;;;;;;;7.23;2.77;;;;;;;24.93;42.72;98418.94;5018372;28;20213;-62
2022/07/28 09:54:06;;;;;;;10.87;2.67;;;;;;;25.09;42.33;98424.44;5021550;28;20197;-62
2022/07/28 09:56:33;;;;;;;8.57;2.93;;;;;;;25.24;42.08;98411.25;5022617;28;20232;-62
2022/07/28 09:59:02;;;;;;;4.10;2.70;;;;;;;25.29;41.93;98410.50;5011187;28;20222;-62
2022/07/28 10:01:29;;;;;;;6.00;2.57;;;;;;;25.63;41.89;98411.09;5030237;28;20204;-62
2022/07/28 10:03:58;;;;;;;4.97;2.70;;;;;;;25.82;41.05;98408.03;5020539;28;20195;-62
2022/07/28 10:06:28;;;;;;;7.40;2.90;;;;;;;26.23;40.41;98412.84;5017492;28;20254;-62
2022/07/28 10:08:58;;;;;;;7.67;2.60;;;;;;;26.29;40.06;98397.63;5026385;28;20706;-62
2022/07/28 10:11:27;;;;;;;6.33;3.10;;;;;;;26.36;40.53;98398.19;5024929;28;20207;-62
2022/07/28 10:13:57;;;;;;;3.30;2.57;;;;;;;26.55;39.94;98398.53;5020235;28;20213;-62
2022/07/28 10:16:26;;;;;;;4.75;3.17;;;;;;;26.38;39.44;98404.91;5005683;28;20690;-62
2022/07/28 10:18:53;;;;;;;4.97;3.20;;;;;;;26.47;39.38;98409.75;5021559;28;20236;-62
2022/07/28 10:21:22;;;;;;;4.03;2.87;;;;;;;26.90;40.27;98397.09;5009304;28;20198;-62
2022/07/28 10:23:50;;;;;;;5.33;2.70;;;;;;;27.10;38.16;98396.31;5017434;28;20198;-62
2022/07/28 10:26:21;;;;;;;7.70;3.13;;;;;;;27.26;37.61;98396.34;5014721;28;20746;-62
2022/07/28 10:28:50;;;;;;;4.63;3.05;;;;;;;27.10;38.17;98399.00;5014827;28;20623;-62
2022/07/28 10:31:31;;;;;;;6.03;3.37;;;;;;;26.61;39.34;98402.06;5022823;28;20244;-62
2022/07/28 10:33:59;;;;;;;9.75;3.17;;;;;;;26.50;39.39;98391.31;5016711;28;20234;-62
2022/07/28 10:36:27;;;;;;;5.67;3.07;;;;;;;26.48;39.78;98395.31;5024969;28;20239;-62
2022/07/28 10:39:02;;;;;;;6.83;3.10;;;;;;;26.62;39.39;98399.09;5016306;28;20267;-62
2022/07/28 10:41:39;;;;;;;4.57;2.70;;;;;;;26.78;40.18;98381.22;5022147;28;20196;-62
2022/07/28 10:44:06;;;;;;;5.88;2.92;;;;;;;26.81;39.57;98390.59;5015337;28;20532;-62
2022/07/28 10:46:33;;;;;;;5.82;3.03;;;;;;;26.69;39.98;98393.50;5018358;28;20193;-62
2022/07/28 10:49:01;;;;;;;9.65;3.50;;;;;;;26.74;39.87;98388.19;5019873;28;20222;-62
2022/07/28 10:51:29;;;;;;;10.23;3.00;;;;;;;26.85;40.05;98386.34;5018428;28;20224;-62
2022/07/28 10:54:01;;;;;;;6.60;3.17;;;;;;;26.79;39.57;98390.06;5018991;28;20571;-62
2022/07/28 10:56:40;;;;;;;6.72;3.60;;;;;;;26.70;39.86;98384.41;5029475;28;20249;-62
2022/07/28 10:59:18;;;;;;;8.83;3.50;;;;;;;26.90;39.51;98375.66;5025734;28;20212;-62
2022/07/28 11:01:45;;;;;;;6.30;3.47;;;;;;;27.11;38.89;98378.38;5019811;28;20705;-62
2022/07/28 11:04:54;;;;;;;7.47;3.37;;;;;;;27.04;39.47;98372.47;5022287;28;20190;-62
2022/07/28 11:07:21;;;;;;;5.80;3.33;;;;;;;27.52;38.50;98378.44;5019283;28;20195;-62
2022/07/28 11:09:48;;;;;;;5.35;3.42;;;;;;;27.43;38.88;98369.28;5028503;28;20236;-62
2022/07/28 11:12:47;;;;;;;7.10;3.40;;;;;;;27.50;38.42;98377.09;5018609;28;20226;-62
2022/07/28 11:15:32;;;;;;;5.32;3.33;;;;;;;27.64;38.30;98366.59;5017943;28;20666;-62
2022/07/28 11:18:00;;;;;;;15.15;3.30;;;;;;;27.89;37.73;98368.47;5021220;28;20230;-62
2022/07/28 11:21:07;;;;;;;7.05;3.63;;;;;;;27.81;38.02;98372.50;5015585;28;20203;-62
2022/07/28 11:23:46;;;;;;;4.53;3.60;;;;;;;27.92;38.15;98375.97;4990894;28;20250;-62
2022/07/28 11:26:35;;;;;;;7.67;3.80;;;;;;;27.35;38.47;98364.47;5015303;28;20195;-62
2022/07/28 11:29:21;;;;;;;6.40;3.63;;;;;;;27.33;39.22;98363.94;5013291;28;20211;-62
2022/07/28 11:31:58;;;;;;;5.80;3.58;;;;;;;27.56;38.98;98359.94;5019812;28;20301;-62
2022/07/28 11:34:26;;;;;;;5.93;3.67;;;;;;;27.81;38.34;98353.72;5018676;28;20204;-62
2022/07/28 11:37:02;;;;;;;5.93;3.60;;;;;;;27.96;37.63;98352.91;5020011;28;20297;-62
2022/07/28 11:39:30;;;;;;;8.05;3.97;;;;;;;27.87;37.87;98361.75;5014533;28;20223;-62
2022/07/28 11:41:57;;;;;;;6.45;3.65;;;;;;;28.05;38.53;98357.72;5020528;28;20201;-62
2022/07/28 11:44:26;;;;;;;7.13;3.70;;;;;;;27.79;37.75;98349.72;5017636;28;20259;-62
2022/07/28 11:46:54;;;;;;;9.68;3.80;;;;;;;27.88;38.14;98347.28;5018205;28;20222;-62